Time;durP1;ratioP1;P1;durP2;ratioP2;P2;SDS_P1;SDS_P2;PMS_P1;PMS_P2;Temp;Humidity;BMP_temperature;BMP_pressure;BME280_temperature;BME280_humidity;BME280_pressure;Samples;Min_cycle;Max_cycle;Signal;HPM_P1;HPM_P2
2020/08/26 00:01:56;;;;;;;2.8;1.2;;;;;;;19.68;66.12598;953.657;;;;
2020/08/26 00:04:21;;;;;;;2.5;1;;;;;;;19.77;65.25684;953.5942;;;;
2020/08/26 00:06:46;;;;;;;1.9;1.2;;;;;;;19.83;66.58398;953.5513;;;;
2020/08/26 00:09:12;;;;;;;3.2;1.2;;;;;;;19.83;68.15918;953.3974;;;;
2020/08/26 00:11:37;;;;;;;1.9;1.2;;;;;;;19.79;68.58887;953.3843;;;;
2020/08/26 00:14:02;;;;;;;2;1.1;;;;;;;19.82;69.46289;953.3844;;;;
2020/08/26 00:16:27;;;;;;;2.5;1.3;;;;;;;19.8;69.25977;953.3826;;;;
2020/08/26 00:18:52;;;;;;;1.4;1.1;;;;;;;19.79;69.9502;953.3299;;;;
2020/08/26 00:21:17;;;;;;;1.8;0.9;;;;;;;19.8;69.10547;953.2849;;;;
2020/08/26 00:23:45;;;;;;;2.3;1.2;;;;;;;19.76;69.28809;953.3142;;;;
2020/08/26 00:26:10;;;;;;;2.4;1.3;;;;;;;19.78;68.63379;953.3244;;;;
2020/08/26 00:28:35;;;;;;;2.2;1.2;;;;;;;19.78;67.98633;953.3187;;;;
2020/08/26 00:31:02;;;;;;;2.5;1.2;;;;;;;19.83;68.20605;953.3105;;;;
2020/08/26 00:33:27;;;;;;;1.1;0.9;;;;;;;19.81;68.13281;953.2203;;;;
2020/08/26 00:35:52;;;;;;;1.5;1;;;;;;;19.84;65.75098;953.1781;;;;
2020/08/26 00:38:18;;;;;;;1.7;1;;;;;;;19.9;67.89844;953.1872;;;;
2020/08/26 00:40:46;;;;;;;1.4;1;;;;;;;19.81;68.55566;953.1589;;;;
2020/08/26 00:43:11;;;;;;;1.9;1;;;;;;;19.86;69.40918;953.065;;;;
2020/08/26 00:45:36;;;;;;;3;1.2;;;;;;;19.81;67.61523;953.058;;;;
2020/08/26 00:48:01;;;;;;;1.1;0.9;;;;;;;19.73;68.84863;953.0347;;;;
2020/08/26 00:50:26;;;;;;;2.5;1.1;;;;;;;19.7;70.43164;953.0329;;;;
2020/08/26 00:52:51;;;;;;;3.9;1.2;;;;;;;19.7;69.11523;953.0164;;;;
2020/08/26 00:55:18;;;;;;;3;1.1;;;;;;;19.7;70.45508;953.1106;;;;
2020/08/26 00:57:43;;;;;;;1.7;1;;;;;;;19.69;69.25293;953.0938;;;;
2020/08/26 01:00:10;;;;;;;2.3;1.3;;;;;;;19.7;69.84277;953.0701;;;;
2020/08/26 01:02:34;;;;;;;2.2;0.9;;;;;;;19.71;67.34082;953.0757;;;;
2020/08/26 01:04:59;;;;;;;3.5;1.3;;;;;;;19.62;69.37109;953.0992;;;;
2020/08/26 01:07:25;;;;;;;1.8;1.2;;;;;;;19.67;65.99707;953.0923;;;;
2020/08/26 01:09:50;;;;;;;2.3;1.2;;;;;;;19.57;69.09375;953.1022;;;;
2020/08/26 01:12:28;;;;;;;2.2;1.1;;;;;;;19.77;63.85938;953.079;;;;
2020/08/26 01:15:01;;;;;;;2.5;1;;;;;;;19.79;66.95313;953.0709;;;;
2020/08/26 01:17:33;;;;;;;3.4;0.9;;;;;;;19.67;66.81934;953.0857;;;;
2020/08/26 01:19:58;;;;;;;1.8;1;;;;;;;19.66;64.40625;953.0823;;;;
2020/08/26 01:22:23;;;;;;;4.7;1;;;;;;;19.7;65.55273;953.0735;;;;
2020/08/26 01:24:50;;;;;;;2.5;1;;;;;;;19.61;66.9043;953.0002;;;;
2020/08/26 01:27:15;;;;;;;2.7;1.1;;;;;;;19.66;66.33398;952.988;;;;
2020/08/26 01:29:40;;;;;;;3.3;1.2;;;;;;;19.62;67.2207;952.9901;;;;
2020/08/26 01:32:05;;;;;;;1.9;1;;;;;;;19.61;67.89063;952.9539;;;;
2020/08/26 01:34:30;;;;;;;2.5;1.3;;;;;;;19.57;68.11914;952.8923;;;;
2020/08/26 01:36:55;;;;;;;2.3;1;;;;;;;19.54;67.98535;952.9097;;;;
2020/08/26 01:39:20;;;;;;;2;1.1;;;;;;;19.51;68.97852;952.8627;;;;
2020/08/26 01:41:46;;;;;;;2.3;1.2;;;;;;;19.42;68.1543;952.9039;;;;
2020/08/26 01:44:11;;;;;;;2.2;1.1;;;;;;;19.42;68.7998;952.8359;;;;
2020/08/26 01:46:38;;;;;;;1.7;1;;;;;;;19.41;65.6748;952.8842;;;;
2020/08/26 01:49:03;;;;;;;2.8;1;;;;;;;19.38;67.1377;952.9048;;;;
2020/08/26 01:51:28;;;;;;;1.5;1;;;;;;;19.41;64.98145;952.8915;;;;
2020/08/26 01:53:53;;;;;;;1.7;0.9;;;;;;;19.37;67.62891;952.8422;;;;
2020/08/26 01:56:18;;;;;;;2.8;1.2;;;;;;;19.35;68.54199;952.9444;;;;
2020/08/26 01:58:43;;;;;;;1.7;0.9;;;;;;;19.35;64.98438;952.955;;;;
2020/08/26 02:01:09;;;;;;;2.2;1;;;;;;;19.41;64.67676;952.8723;;;;
2020/08/26 02:03:34;;;;;;;2.4;1.1;;;;;;;19.45;64.09473;952.8875;;;;
2020/08/26 02:05:59;;;;;;;4.1;1.1;;;;;;;19.44;67.37012;952.8793;;;;
2020/08/26 02:08:24;;;;;;;1.1;1;;;;;;;19.49;63.45508;952.815;;;;
2020/08/26 02:10:52;;;;;;;3.7;1;;;;;;;19.64;61.83008;952.8344;;;;
2020/08/26 02:13:17;;;;;;;2;1.1;;;;;;;19.71;61.21777;952.8359;;;;
2020/08/26 02:15:44;;;;;;;3.1;1.1;;;;;;;19.72;61.00879;952.8198;;;;
2020/08/26 02:18:09;;;;;;;2.8;1.1;;;;;;;19.72;60.57324;952.8132;;;;
2020/08/26 02:20:34;;;;;;;2.8;1;;;;;;;19.75;60.17773;952.8133;;;;
2020/08/26 02:22:59;;;;;;;1.7;1;;;;;;;19.78;59.7002;952.8174;;;;
2020/08/26 02:25:24;;;;;;;2.4;1;;;;;;;19.83;59.30664;952.7541;;;;
2020/08/26 02:27:50;;;;;;;1.7;0.8;;;;;;;20.01;58.29492;952.7424;;;;
2020/08/26 02:30:15;;;;;;;2.4;1.1;;;;;;;19.96;58.39648;952.733;;;;
2020/08/26 02:32:40;;;;;;;2.2;1.1;;;;;;;19.99;58.16406;952.6858;;;;
2020/08/26 02:35:05;;;;;;;1.6;0.8;;;;;;;20.11;57.41406;952.6808;;;;
2020/08/26 02:37:30;;;;;;;2.2;0.9;;;;;;;20.15;56.74902;952.6678;;;;
2020/08/26 02:39:55;;;;;;;4.4;1;;;;;;;20.15;56.73828;952.6057;;;;
2020/08/26 02:42:20;;;;;;;2.1;0.8;;;;;;;20.28;55.8252;952.6086;;;;
2020/08/26 02:44:45;;;;;;;2.1;0.7;;;;;;;20.39;55.25;952.6406;;;;
2020/08/26 02:47:10;;;;;;;1.6;0.8;;;;;;;20.43;55.08984;952.652;;;;
2020/08/26 02:49:35;;;;;;;3.4;0.9;;;;;;;20.43;55.16113;952.5468;;;;
2020/08/26 02:52:00;;;;;;;3.8;1;;;;;;;20.57;54.22461;952.6057;;;;
2020/08/26 02:54:25;;;;;;;1.5;0.9;;;;;;;20.61;53.85352;952.535;;;;
2020/08/26 02:56:51;;;;;;;1.7;0.7;;;;;;;20.69;53.67383;952.5707;;;;
2020/08/26 02:59:16;;;;;;;1.3;0.9;;;;;;;20.82;53.01953;952.6161;;;;
2020/08/26 03:01:42;;;;;;;3.1;1;;;;;;;21;52.38086;952.6169;;;;
2020/08/26 03:04:07;;;;;;;1.9;0.8;;;;;;;21.21;51.67383;952.5941;;;;
2020/08/26 03:06:32;;;;;;;1.4;0.9;;;;;;;21.14;51.84277;952.5898;;;;
2020/08/26 03:08:57;;;;;;;1.8;0.8;;;;;;;21.16;52.06836;952.5652;;;;
2020/08/26 03:11:23;;;;;;;1.9;0.8;;;;;;;21.24;51.47656;952.6211;;;;
2020/08/26 03:13:48;;;;;;;4.1;0.9;;;;;;;21.38;51.09082;952.6483;;;;
2020/08/26 03:16:13;;;;;;;2.8;0.7;;;;;;;21.37;51.14941;952.6272;;;;
2020/08/26 03:18:38;;;;;;;2.5;0.8;;;;;;;21.37;51.2207;952.7174;;;;
2020/08/26 03:21:03;;;;;;;1.6;0.8;;;;;;;21.47;50.91309;952.6494;;;;
2020/08/26 03:23:28;;;;;;;2.6;0.8;;;;;;;21.55;50.75781;952.702;;;;
2020/08/26 03:25:53;;;;;;;2.8;0.8;;;;;;;21.58;50.71387;952.6761;;;;
2020/08/26 03:28:18;;;;;;;3.2;0.8;;;;;;;21.77;50.29785;952.6403;;;;
2020/08/26 03:30:44;;;;;;;1.8;0.7;;;;;;;21.67;50.7002;952.7228;;;;
2020/08/26 03:33:09;;;;;;;3.1;0.9;;;;;;;21.6;50.97559;952.7261;;;;
2020/08/26 03:35:34;;;;;;;3.7;1;;;;;;;21.58;51.17383;952.7208;;;;
2020/08/26 03:37:59;;;;;;;3.6;0.8;;;;;;;21.61;51.27148;952.8245;;;;
2020/08/26 03:40:24;;;;;;;1.6;0.6;;;;;;;21.58;51.68164;952.8128;;;;
2020/08/26 03:42:56;;;;;;;1.6;0.8;;;;;;;21.58;51.76367;952.818;;;;
2020/08/26 03:45:21;;;;;;;2.3;0.7;;;;;;;21.67;51.62109;952.8878;;;;
2020/08/26 03:47:49;;;;;;;1.9;0.7;;;;;;;21.67;51.86914;952.9334;;;;
2020/08/26 03:50:14;;;;;;;1.9;0.8;;;;;;;21.63;52.13477;952.9844;;;;
2020/08/26 03:52:39;;;;;;;1.9;0.8;;;;;;;21.52;52.48828;953.0182;;;;
2020/08/26 03:55:04;;;;;;;3.1;0.8;;;;;;;21.68;52.30762;953.1328;;;;
2020/08/26 03:57:29;;;;;;;1.4;0.7;;;;;;;21.56;52.93066;953.0084;;;;
2020/08/26 03:59:54;;;;;;;1.5;0.7;;;;;;;21.63;52.83105;953.0242;;;;
2020/08/26 04:02:28;;;;;;;3.4;1.1;;;;;;;21.62;53.07813;953.0347;;;;
2020/08/26 04:04:53;;;;;;;3.1;0.9;;;;;;;21.66;53.80371;953.0531;;;;
2020/08/26 04:07:18;;;;;;;1.6;0.7;;;;;;;21.66;53.92188;953.0268;;;;
2020/08/26 04:09:43;;;;;;;1.2;0.8;;;;;;;21.63;54.17773;953.0051;;;;
2020/08/26 04:12:10;;;;;;;3.4;0.7;;;;;;;21.55;54.71094;953.0726;;;;
2020/08/26 04:14:34;;;;;;;5.4;0.7;;;;;;;21.64;54.66309;953.1002;;;;
2020/08/26 04:16:59;;;;;;;3.4;0.8;;;;;;;21.57;54.52441;953.1483;;;;
2020/08/26 04:19:25;;;;;;;2.6;0.9;;;;;;;21.47;54.95996;953.1552;;;;
2020/08/26 04:21:51;;;;;;;2.3;0.8;;;;;;;21.45;55.13574;953.3075;;;;
2020/08/26 04:24:23;;;;;;;3.4;1;;;;;;;21.49;54.93945;953.1884;;;;
2020/08/26 04:26:48;;;;;;;2.8;0.7;;;;;;;21.51;54.94141;953.2608;;;;
2020/08/26 04:29:13;;;;;;;3.5;0.8;;;;;;;21.46;54.95996;953.2704;;;;
2020/08/26 04:31:38;;;;;;;3.6;0.9;;;;;;;21.35;55.47656;953.3236;;;;
2020/08/26 04:34:03;;;;;;;2.7;1;;;;;;;21.42;55.2373;953.3161;;;;
2020/08/26 04:36:28;;;;;;;3.1;0.9;;;;;;;21.35;55.32227;953.326;;;;
2020/08/26 04:38:53;;;;;;;3;0.8;;;;;;;21.38;55.37305;953.3945;;;;
2020/08/26 04:41:19;;;;;;;3.8;1.3;;;;;;;21.31;55.51855;953.351;;;;
2020/08/26 04:43:44;;;;;;;2.3;1.1;;;;;;;21.26;55.67676;953.4155;;;;
2020/08/26 04:46:09;;;;;;;2.8;0.8;;;;;;;21.32;55.59082;953.5101;;;;
2020/08/26 04:48:55;;;;;;;2.9;0.8;;;;;;;21.3;55.70508;953.5245;;;;
2020/08/26 04:53:24;;;;;;;2.5;0.9;;;;;;;21.32;56.07422;953.5402;;;;
2020/08/26 04:55:50;;;;;;;1.1;0.8;;;;;;;21.26;56.17383;953.4973;;;;
2020/08/26 04:58:15;;;;;;;1.4;0.9;;;;;;;21.17;56.72754;953.5715;;;;
2020/08/26 05:00:41;;;;;;;2.9;0.8;;;;;;;21.23;56.7002;953.5472;;;;
2020/08/26 05:03:06;;;;;;;2;0.9;;;;;;;21.19;57.03711;953.6093;;;;
2020/08/26 05:05:31;;;;;;;3.1;1;;;;;;;21.16;57.20898;953.6756;;;;
2020/08/26 05:07:56;;;;;;;3;0.9;;;;;;;21.15;57.45605;953.6735;;;;
2020/08/26 05:10:21;;;;;;;1.6;0.8;;;;;;;21.1;57.83887;953.762;;;;
2020/08/26 05:12:47;;;;;;;1.8;0.9;;;;;;;21.12;57.91113;953.8376;;;;
2020/08/26 05:15:12;;;;;;;4.3;1;;;;;;;21.16;57.74023;953.8042;;;;
2020/08/26 05:17:37;;;;;;;2.6;0.8;;;;;;;21.14;57.91406;953.827;;;;
2020/08/26 05:20:03;;;;;;;1.5;0.8;;;;;;;21.11;58.28809;953.9156;;;;
2020/08/26 05:22:28;;;;;;;2;0.9;;;;;;;21.09;58.42578;953.9149;;;;
2020/08/26 05:24:53;;;;;;;1.5;0.8;;;;;;;21.14;58.43359;953.9504;;;;
2020/08/26 05:27:18;;;;;;;4.6;0.9;;;;;;;21.09;58.87402;954.007;;;;
2020/08/26 05:29:43;;;;;;;3.1;1;;;;;;;21.09;59.06445;954.01;;;;
2020/08/26 05:32:09;;;;;;;2.9;0.8;;;;;;;21.07;59.68555;954.048;;;;
2020/08/26 05:34:34;;;;;;;3.3;0.8;;;;;;;21.05;59.63574;954.0446;;;;
2020/08/26 05:36:59;;;;;;;4.4;0.9;;;;;;;21.06;59.61328;954.0691;;;;
2020/08/26 05:39:24;;;;;;;3.4;1;;;;;;;21.07;59.82813;954.1647;;;;
2020/08/26 05:41:50;;;;;;;5;1.1;;;;;;;21.06;60.0498;954.1619;;;;
2020/08/26 05:44:16;;;;;;;2;1.2;;;;;;;21.08;59.87598;954.1917;;;;
2020/08/26 05:46:40;;;;;;;2.1;0.9;;;;;;;21.07;60.09766;954.2087;;;;
2020/08/26 05:49:05;;;;;;;4;0.8;;;;;;;21.1;59.98438;954.2344;;;;
2020/08/26 05:51:30;;;;;;;2.5;0.7;;;;;;;21.13;59.96484;954.24;;;;
2020/08/26 05:53:55;;;;;;;2.5;0.9;;;;;;;21.13;60.17676;954.347;;;;
2020/08/26 05:56:21;;;;;;;2.7;0.9;;;;;;;21.15;60.35742;954.3206;;;;
2020/08/26 05:58:46;;;;;;;2.8;0.8;;;;;;;21.19;59.96191;954.2664;;;;
2020/08/26 06:02:39;;;;;;;2.3;0.8;;;;;;;21.18;60.66699;954.3354;;;;
2020/08/26 06:05:04;;;;;;;2.7;0.9;;;;;;;21.27;60.26758;954.2664;;;;
2020/08/26 06:07:29;;;;;;;2.7;0.9;;;;;;;21.27;60.71582;954.2713;;;;
2020/08/26 06:09:54;;;;;;;1.4;0.8;;;;;;;21.29;60.80078;954.3818;;;;
2020/08/26 06:12:19;;;;;;;1.8;0.7;;;;;;;21.36;60.56152;954.4493;;;;
2020/08/26 06:14:45;;;;;;;1.1;0.7;;;;;;;21.38;60.88281;954.4673;;;;
2020/08/26 06:17:10;;;;;;;3.1;0.8;;;;;;;21.41;60.56836;954.4239;;;;
2020/08/26 06:19:35;;;;;;;1.9;0.7;;;;;;;21.46;60.95215;954.5394;;;;
2020/08/26 06:22:00;;;;;;;4.1;0.7;;;;;;;21.46;61.43652;954.5627;;;;
2020/08/26 06:24:25;;;;;;;1.6;0.9;;;;;;;21.48;61.25098;954.4989;;;;
2020/08/26 06:26:50;;;;;;;1.9;0.7;;;;;;;21.51;61.27832;954.4987;;;;
2020/08/26 06:29:15;;;;;;;2;0.7;;;;;;;21.52;61.32813;954.5704;;;;
2020/08/26 06:31:40;;;;;;;4.8;1;;;;;;;21.53;61.8252;954.5235;;;;
2020/08/26 06:34:05;;;;;;;1.9;0.8;;;;;;;21.56;61.43848;954.5817;;;;
2020/08/26 06:36:30;;;;;;;2;0.7;;;;;;;21.69;61.79883;954.4997;;;;
2020/08/26 06:38:55;;;;;;;3.1;0.8;;;;;;;21.7;61.43555;954.4983;;;;
2020/08/26 06:41:21;;;;;;;3;0.8;;;;;;;21.73;61.29883;954.5586;;;;
2020/08/26 06:43:46;;;;;;;3.2;0.8;;;;;;;21.73;61.52344;954.5314;;;;
2020/08/26 06:46:11;;;;;;;3.4;0.7;;;;;;;21.75;61.81934;954.5026;;;;
2020/08/26 06:48:36;;;;;;;3.7;0.8;;;;;;;21.85;61.5625;954.5405;;;;
2020/08/26 06:51:01;;;;;;;3.5;0.8;;;;;;;21.87;61.89648;954.5632;;;;
2020/08/26 06:53:26;;;;;;;2.1;0.7;;;;;;;21.92;61.9375;954.5831;;;;
2020/08/26 06:55:51;;;;;;;2;0.9;;;;;;;22.02;61.30273;954.6239;;;;
2020/08/26 06:58:16;;;;;;;3.2;0.9;;;;;;;22.04;61.05566;954.6555;;;;
2020/08/26 07:00:42;;;;;;;3.2;0.7;;;;;;;22.02;61.27832;954.6587;;;;
2020/08/26 07:03:07;;;;;;;2;0.6;;;;;;;22.04;61.20996;954.6814;;;;
2020/08/26 07:05:32;;;;;;;0.9;0.6;;;;;;;22.05;60.92871;954.6487;;;;
2020/08/26 07:07:57;;;;;;;3.6;0.8;;;;;;;22.11;61.08984;954.718;;;;
2020/08/26 07:10:31;;;;;;;1.6;0.7;;;;;;;22.12;60.66504;954.7275;;;;
2020/08/26 07:12:59;;;;;;;3.2;0.7;;;;;;;22.18;60.56738;954.5912;;;;
2020/08/26 07:15:38;;;;;;;3.2;0.7;;;;;;;22.2;60.4043;954.6075;;;;
2020/08/26 07:18:08;;;;;;;2.2;0.5;;;;;;;22.18;60.30762;954.5886;;;;
2020/08/26 07:20:39;;;;;;;2.1;0.6;;;;;;;22.27;60.55664;954.6164;;;;
2020/08/26 07:23:04;;;;;;;2.3;0.6;;;;;;;22.31;59.91211;954.6564;;;;
2020/08/26 07:25:30;;;;;;;4.4;0.8;;;;;;;22.34;59.71484;954.6335;;;;
2020/08/26 07:27:55;;;;;;;2.7;0.6;;;;;;;22.4;59.86426;954.685;;;;
2020/08/26 07:30:20;;;;;;;1.4;0.7;;;;;;;22.4;60.25488;954.6981;;;;
2020/08/26 07:32:45;;;;;;;2.2;0.6;;;;;;;22.48;60.63184;954.6433;;;;
2020/08/26 07:35:10;;;;;;;4.4;0.7;;;;;;;22.47;60.34668;954.661;;;;
2020/08/26 07:37:35;;;;;;;3.4;0.6;;;;;;;22.52;60.60254;954.7463;;;;
2020/08/26 07:40:00;;;;;;;1;0.6;;;;;;;22.58;60.62305;954.714;;;;
2020/08/26 07:42:26;;;;;;;2.4;0.7;;;;;;;22.57;60.88184;954.733;;;;
2020/08/26 07:44:51;;;;;;;2.8;0.8;;;;;;;22.58;60.45605;954.75;;;;
2020/08/26 07:47:17;;;;;;;3.2;0.8;;;;;;;22.65;60.43164;954.897;;;;
2020/08/26 07:49:42;;;;;;;3.6;0.8;;;;;;;22.75;60.18457;954.9832;;;;
2020/08/26 07:52:07;;;;;;;2.6;0.5;;;;;;;22.81;58.53516;954.9153;;;;
2020/08/26 07:54:32;;;;;;;3.9;0.7;;;;;;;22.74;58.04102;954.9146;;;;
2020/08/26 07:56:57;;;;;;;2.9;0.7;;;;;;;22.68;58.94434;954.8861;;;;
2020/08/26 07:59:23;;;;;;;4.2;0.6;;;;;;;22.79;58.56934;954.9916;;;;
2020/08/26 08:01:48;;;;;;;3.1;0.7;;;;;;;22.78;57.87988;954.9405;;;;
2020/08/26 08:04:13;;;;;;;2.7;0.6;;;;;;;22.81;57.95508;954.9068;;;;
2020/08/26 08:06:38;;;;;;;4;0.8;;;;;;;22.81;57.44629;954.9135;;;;
2020/08/26 08:09:04;;;;;;;2;0.6;;;;;;;22.84;57.14258;954.8525;;;;
2020/08/26 08:11:29;;;;;;;2.1;0.6;;;;;;;22.95;56.74316;954.8663;;;;
2020/08/26 08:13:54;;;;;;;1.6;0.4;;;;;;;22.93;56.96387;954.8529;;;;
2020/08/26 08:16:19;;;;;;;4;0.8;;;;;;;22.99;57.06738;954.9196;;;;
2020/08/26 08:18:44;;;;;;;3.5;0.8;;;;;;;23.08;56.50977;954.86;;;;
2020/08/26 08:21:09;;;;;;;4.6;0.7;;;;;;;23.05;56.68262;954.8811;;;;
2020/08/26 08:23:34;;;;;;;5.8;0.6;;;;;;;23.11;56.26563;954.95;;;;
2020/08/26 08:26:00;;;;;;;1.4;0.6;;;;;;;23.2;56.40723;955.0675;;;;
2020/08/26 08:28:24;;;;;;;3.5;0.6;;;;;;;23.31;55.75586;955.0726;;;;
2020/08/26 08:30:50;;;;;;;2.4;0.6;;;;;;;23.26;54.6377;955.0609;;;;
2020/08/26 08:33:16;;;;;;;1.5;0.5;;;;;;;23.17;54.25977;955.0292;;;;
2020/08/26 08:35:47;;;;;;;3.1;0.7;;;;;;;23.32;54.43262;955.0952;;;;
2020/08/26 08:38:06;;;;;;;3;0.6;;;;;;;23.34;54.125;955.0072;;;;
2020/08/26 08:40:31;;;;;;;2.1;0.5;;;;;;;23.33;54.18359;955.0989;;;;
2020/08/26 08:42:56;;;;;;;2.6;0.7;;;;;;;23.31;54.45508;955.0797;;;;
2020/08/26 08:45:26;;;;;;;2.5;0.7;;;;;;;23.35;53.99707;955.1189;;;;
2020/08/26 08:47:51;;;;;;;1.6;0.6;;;;;;;23.39;53.78711;954.9771;;;;
2020/08/26 08:50:18;;;;;;;2;0.6;;;;;;;23.47;53.95215;955.1593;;;;
2020/08/26 08:52:43;;;;;;;2.1;0.6;;;;;;;23.52;53.66113;955.1584;;;;
2020/08/26 08:55:08;;;;;;;4.1;0.7;;;;;;;23.45;53.32324;955.017;;;;
2020/08/26 08:57:41;;;;;;;2.1;0.6;;;;;;;23.58;53.82422;955.0552;;;;
2020/08/26 09:00:01;;;;;;;4;0.8;;;;;;;23.7;53.11426;955.1947;;;;
2020/08/26 09:02:28;;;;;;;3.9;0.6;;;;;;;23.66;51.4502;954.9781;;;;
2020/08/26 09:04:53;;;;;;;1.5;0.5;;;;;;;23.77;51.61621;955.0381;;;;
2020/08/26 09:07:18;;;;;;;2.3;0.6;;;;;;;23.66;51.58008;955.0153;;;;
2020/08/26 09:09:43;;;;;;;2.5;0.6;;;;;;;23.78;50.82227;955.1365;;;;
2020/08/26 09:12:13;;;;;;;1.5;0.6;;;;;;;23.75;50.4873;955.0572;;;;
2020/08/26 09:14:39;;;;;;;5.1;0.5;;;;;;;23.88;50.91797;955.0659;;;;
2020/08/26 09:17:06;;;;;;;1.5;0.5;;;;;;;23.93;50.02051;955.1779;;;;
2020/08/26 09:19:31;;;;;;;2.3;0.7;;;;;;;23.86;49.58691;955.159;;;;
2020/08/26 09:21:56;;;;;;;1.9;0.6;;;;;;;23.92;49.16699;955.1049;;;;
2020/08/26 09:24:21;;;;;;;5.2;0.7;;;;;;;24.06;48.68262;955.087;;;;
2020/08/26 09:26:47;;;;;;;3.6;0.5;;;;;;;24.17;48.55273;955.2173;;;;
2020/08/26 09:29:12;;;;;;;3;0.7;;;;;;;24.21;48.21289;955.1008;;;;
2020/08/26 09:31:37;;;;;;;2.2;0.4;;;;;;;24.23;47.22852;955.0624;;;;
2020/08/26 09:34:02;;;;;;;1.9;0.7;;;;;;;24.27;47.13867;955.1299;;;;
2020/08/26 09:36:27;;;;;;;2.8;0.5;;;;;;;24.26;47.05469;955.1212;;;;
2020/08/26 09:38:52;;;;;;;4;0.7;;;;;;;24.29;46.33398;955.1731;;;;
2020/08/26 09:41:17;;;;;;;3;0.6;;;;;;;24.35;44.7002;955.3549;;;;
2020/08/26 09:43:43;;;;;;;5.2;0.5;;;;;;;24.37;44.48926;955.4771;;;;
2020/08/26 09:46:08;;;;;;;5.5;0.6;;;;;;;24.33;45.15039;955.2363;;;;
2020/08/26 09:48:33;;;;;;;4.8;0.7;;;;;;;24.36;44.74902;955.1819;;;;
2020/08/26 09:50:58;;;;;;;4.7;1.1;;;;;;;24.41;44.35059;955.2238;;;;
2020/08/26 09:53:23;;;;;;;4.4;0.5;;;;;;;24.34;44.09473;955.2424;;;;
2020/08/26 09:55:48;;;;;;;3.8;0.7;;;;;;;24.39;42.94727;955.4546;;;;
2020/08/26 09:58:13;;;;;;;2.6;0.7;;;;;;;24.42;42.3916;955.3053;;;;
2020/08/26 10:01:22;;;;;;;3.7;0.7;;;;;;;24.51;40.97461;955.3367;;;;
2020/08/26 10:03:05;;;;;;;9.3;1;;;;;;;24.37;40.49902;955.3574;;;;
2020/08/26 10:05:31;;;;;;;5.2;0.7;;;;;;;24.5;40.7832;955.4045;;;;
2020/08/26 10:07:57;;;;;;;4.1;0.8;;;;;;;24.54;41.17871;955.3289;;;;
2020/08/26 10:10:22;;;;;;;4.9;0.9;;;;;;;24.47;41.14941;955.4075;;;;
2020/08/26 10:12:47;;;;;;;5.2;0.6;;;;;;;24.62;40.66406;955.3669;;;;
2020/08/26 10:15:12;;;;;;;4.8;0.8;;;;;;;24.6;39.35547;955.3276;;;;
2020/08/26 10:17:37;;;;;;;4.9;0.6;;;;;;;24.59;39.24707;955.4242;;;;
2020/08/26 10:20:02;;;;;;;4.2;0.6;;;;;;;24.66;39.26465;955.4137;;;;
2020/08/26 10:22:27;;;;;;;4.2;0.6;;;;;;;24.62;38.03809;955.3113;;;;
2020/08/26 10:24:52;;;;;;;1.2;0.5;;;;;;;24.66;37.73145;955.4267;;;;
2020/08/26 10:27:17;;;;;;;3.9;0.6;;;;;;;24.7;37.91406;955.6075;;;;
2020/08/26 10:29:42;;;;;;;1.3;0.4;;;;;;;24.7;38.1875;955.3808;;;;
2020/08/26 10:32:08;;;;;;;2.6;0.6;;;;;;;24.81;37.29297;955.3906;;;;
2020/08/26 10:34:33;;;;;;;3.4;0.5;;;;;;;24.88;37.04883;955.4947;;;;
2020/08/26 10:36:58;;;;;;;2.1;0.4;;;;;;;24.85;36.14258;955.325;;;;
2020/08/26 10:39:23;;;;;;;3.6;0.7;;;;;;;24.86;36.77441;955.4658;;;;
2020/08/26 10:41:48;;;;;;;4.4;0.5;;;;;;;24.77;37.47949;955.4182;;;;
2020/08/26 10:44:13;;;;;;;1;0.5;;;;;;;24.78;38.05078;955.3742;;;;
2020/08/26 10:46:40;;;;;;;2.7;0.5;;;;;;;24.87;38.20117;955.3979;;;;
2020/08/26 10:49:05;;;;;;;1.3;0.5;;;;;;;24.98;38.16309;955.2195;;;;
2020/08/26 10:51:31;;;;;;;2.9;0.6;;;;;;;24.9;38.7627;955.3779;;;;
2020/08/26 10:53:59;;;;;;;2;0.7;;;;;;;24.89;39.41602;955.2584;;;;
2020/08/26 10:56:24;;;;;;;0.5;0.4;;;;;;;24.91;39.22656;955.3303;;;;
2020/08/26 10:58:58;;;;;;;2.3;0.5;;;;;;;24.92;38.63379;955.2856;;;;
2020/08/26 11:01:27;;;;;;;3.1;0.5;;;;;;;24.98;37.29492;955.2445;;;;
2020/08/26 11:03:52;;;;;;;2.5;0.6;;;;;;;25.03;37.65625;955.0995;;;;
2020/08/26 11:06:17;;;;;;;3.1;0.3;;;;;;;25;37.86719;955.192;;;;
2020/08/26 11:08:45;;;;;;;1.8;0.4;;;;;;;24.98;37.72363;955.1735;;;;
2020/08/26 11:11:14;;;;;;;1.7;0.5;;;;;;;25.13;37.55762;955.1663;;;;
2020/08/26 11:13:40;;;;;;;2.6;0.4;;;;;;;25.13;37.2832;955.1755;;;;
2020/08/26 11:16:07;;;;;;;3.7;0.5;;;;;;;25.24;36.62598;954.9735;;;;
2020/08/26 11:18:32;;;;;;;2.9;0.4;;;;;;;25.18;36.76465;955.1031;;;;
2020/08/26 11:20:59;;;;;;;4.1;0.7;;;;;;;25.13;35.90332;955.2213;;;;
2020/08/26 11:23:25;;;;;;;1.8;0.6;;;;;;;25.27;36.35547;955.1497;;;;
2020/08/26 11:25:50;;;;;;;1.8;0.8;;;;;;;25.51;36.24512;955.1425;;;;
2020/08/26 11:28:16;;;;;;;5.6;0.5;;;;;;;25.34;35.95605;955.217;;;;
2020/08/26 11:30:44;;;;;;;5.2;0.4;;;;;;;25.39;35.43652;955.0665;;;;
2020/08/26 11:33:09;;;;;;;2.7;0.5;;;;;;;25.41;35.46191;955.0917;;;;
2020/08/26 11:35:34;;;;;;;5.2;0.8;;;;;;;25.49;35.4209;955.0415;;;;
2020/08/26 11:37:59;;;;;;;4.5;0.6;;;;;;;25.49;34.58789;955.128;;;;
2020/08/26 11:40:26;;;;;;;3.5;0.6;;;;;;;25.46;34.97754;955.1244;;;;
2020/08/26 11:42:51;;;;;;;4.6;0.8;;;;;;;25.64;34.75391;955.1053;;;;
2020/08/26 11:45:16;;;;;;;7;0.6;;;;;;;25.68;34.41113;955.1764;;;;
2020/08/26 11:47:41;;;;;;;4;0.5;;;;;;;25.87;33.75879;955.1158;;;;
2020/08/26 11:50:06;;;;;;;3.3;0.5;;;;;;;25.79;32.91895;955.1036;;;;
2020/08/26 11:52:31;;;;;;;5.6;0.5;;;;;;;25.98;33.25488;955.2459;;;;
2020/08/26 11:54:56;;;;;;;2.4;0.5;;;;;;;25.98;32.9209;955.0992;;;;
2020/08/26 11:57:22;;;;;;;5.4;0.9;;;;;;;25.85;32.08887;955.1306;;;;
2020/08/26 11:59:47;;;;;;;4.6;0.5;;;;;;;25.86;31.42188;955.2212;;;;
2020/08/26 12:02:12;;;;;;;4;0.6;;;;;;;25.86;31.92188;955.1016;;;;
2020/08/26 12:04:37;;;;;;;7.1;0.7;;;;;;;25.91;32.49805;955.0882;;;;
2020/08/26 12:07:02;;;;;;;6.1;0.6;;;;;;;26.05;32.44922;955.0586;;;;
2020/08/26 12:09:27;;;;;;;7.5;0.5;;;;;;;26.07;31.8418;955.1431;;;;
2020/08/26 12:12:49;;;;;;;3.7;0.7;;;;;;;26.26;31.66504;955.139;;;;
2020/08/26 12:15:17;;;;;;;6.2;0.6;;;;;;;26.44;31.86816;955.1214;;;;
2020/08/26 12:17:43;;;;;;;6.1;0.6;;;;;;;26.35;31.56445;955.0438;;;;
2020/08/26 12:20:08;;;;;;;2;0.4;;;;;;;26.39;31.00586;955.0761;;;;
2020/08/26 12:22:33;;;;;;;2;0.5;;;;;;;26.29;31.56055;955.2231;;;;
2020/08/26 12:24:58;;;;;;;5.2;0.8;;;;;;;26.47;31.54883;955.0894;;;;
2020/08/26 12:27:23;;;;;;;2;0.6;;;;;;;26.52;31.26563;955.1791;;;;
2020/08/26 12:29:48;;;;;;;3.6;0.4;;;;;;;26.46;30.54492;955.1054;;;;
2020/08/26 12:32:13;;;;;;;4.7;0.5;;;;;;;26.63;30.68848;955.2497;;;;
2020/08/26 12:34:38;;;;;;;2.5;0.4;;;;;;;26.93;31.04297;955.1898;;;;
2020/08/26 12:37:03;;;;;;;3.4;0.5;;;;;;;26.78;30.98535;955.2444;;;;
2020/08/26 12:39:28;;;;;;;3.6;0.5;;;;;;;26.68;31.14551;955.3602;;;;
2020/08/26 12:41:53;;;;;;;4.5;0.5;;;;;;;26.7;31.79102;955.2623;;;;
2020/08/26 12:44:18;;;;;;;4.4;0.5;;;;;;;26.71;31.69629;955.2734;;;;
2020/08/26 12:46:44;;;;;;;6.5;0.9;;;;;;;26.92;32.08301;955.2271;;;;
2020/08/26 12:49:09;;;;;;;2.6;0.5;;;;;;;26.84;31.06152;955.4222;;;;
2020/08/26 12:51:34;;;;;;;3;0.6;;;;;;;27.04;30.78809;955.3621;;;;
2020/08/26 12:53:59;;;;;;;2;0.5;;;;;;;26.91;30.80371;955.2863;;;;
2020/08/26 12:56:24;;;;;;;2.2;0.5;;;;;;;26.93;31.01953;955.4294;;;;
2020/08/26 12:58:49;;;;;;;3.4;0.4;;;;;;;27.1;30.93555;955.3013;;;;
2020/08/26 13:01:15;;;;;;;2.4;0.5;;;;;;;26.97;30.50879;955.3709;;;;
2020/08/26 13:03:41;;;;;;;3;0.6;;;;;;;27.11;31.04395;955.312;;;;
2020/08/26 13:06:06;;;;;;;1.9;0.5;;;;;;;26.82;31.53711;955.4747;;;;
2020/08/26 13:08:32;;;;;;;3.2;0.5;;;;;;;26.53;32.11426;955.4363;;;;
2020/08/26 13:10:59;;;;;;;1.9;0.5;;;;;;;26.12;32.7168;955.4261;;;;
2020/08/26 13:13:25;;;;;;;3.8;0.7;;;;;;;26.07;32.91504;955.4239;;;;
2020/08/26 13:15:50;;;;;;;5.1;0.7;;;;;;;26;32.74414;955.4572;;;;
2020/08/26 13:18:15;;;;;;;1.7;0.5;;;;;;;25.94;32.86914;955.3817;;;;
2020/08/26 13:20:40;;;;;;;3.1;0.6;;;;;;;25.83;33.26758;955.3824;;;;
2020/08/26 13:23:05;;;;;;;5.3;0.4;;;;;;;25.7;33.42383;955.6434;;;;
2020/08/26 13:25:30;;;;;;;3.8;0.5;;;;;;;25.63;33.96777;955.5435;;;;
2020/08/26 13:27:55;;;;;;;2.4;0.5;;;;;;;25.52;34.36328;955.6293;;;;
2020/08/26 13:30:20;;;;;;;2.8;0.5;;;;;;;25.54;34.6748;955.562;;;;
2020/08/26 13:32:46;;;;;;;7.6;0.6;;;;;;;25.51;34.30273;955.5402;;;;
2020/08/26 13:35:16;;;;;;;3.9;0.4;;;;;;;25.43;34.6416;955.6516;;;;
2020/08/26 13:37:43;;;;;;;3;0.6;;;;;;;25.48;33.88477;955.609;;;;
2020/08/26 13:40:08;;;;;;;2.8;0.4;;;;;;;25.51;34.24316;955.666;;;;
2020/08/26 13:42:33;;;;;;;5.1;0.5;;;;;;;25.56;34.47363;955.6223;;;;
2020/08/26 13:44:58;;;;;;;3.1;0.4;;;;;;;25.9;33.6543;955.632;;;;
2020/08/26 13:47:25;;;;;;;4.7;0.5;;;;;;;26.16;33.36328;955.6082;;;;
2020/08/26 13:49:50;;;;;;;3.9;0.6;;;;;;;26.36;33.19824;955.5634;;;;
2020/08/26 13:52:15;;;;;;;1.6;0.5;;;;;;;26.26;33.43066;955.603;;;;
2020/08/26 13:54:40;;;;;;;2.7;0.5;;;;;;;25.79;33.5625;955.5963;;;;
2020/08/26 13:57:05;;;;;;;2.3;0.5;;;;;;;25.89;33.99902;955.6476;;;;
2020/08/26 13:59:30;;;;;;;4.5;0.6;;;;;;;25.9;33.90332;955.5949;;;;
2020/08/26 14:01:58;;;;;;;1.2;0.4;;;;;;;26.01;33.98438;955.6086;;;;
2020/08/26 14:04:23;;;;;;;2.9;0.6;;;;;;;25.94;35.24219;955.5785;;;;
2020/08/26 14:06:48;;;;;;;1.4;0.4;;;;;;;25.92;34.69238;955.5694;;;;
2020/08/26 14:09:13;;;;;;;1.5;0.5;;;;;;;25.9;34.52344;955.5081;;;;
2020/08/26 14:11:38;;;;;;;1.4;0.4;;;;;;;25.92;34.09668;955.5603;;;;
2020/08/26 14:14:05;;;;;;;1.3;0.4;;;;;;;25.98;34.07715;955.5049;;;;
2020/08/26 14:16:30;;;;;;;3.1;0.6;;;;;;;26.29;34.44629;955.5098;;;;
2020/08/26 14:18:55;;;;;;;4;0.5;;;;;;;26.68;34.46484;955.6168;;;;
2020/08/26 14:21:20;;;;;;;2.4;0.7;;;;;;;26.56;34.69434;955.5214;;;;